sensor_id;sensor_type;location;lat;lon;timestamp;pressure;altitude;pressure_sealevel;temperature
47484;BMP280;54076;50.322;18.650;2023-03-21T00:04:02;98021.48;;;4.83
47484;BMP280;54076;50.322;18.650;2023-03-21T00:09:03;98017.52;;;4.92
47484;BMP280;54076;50.322;18.650;2023-03-21T00:14:04;98019.02;;;4.70
47484;BMP280;54076;50.322;18.650;2023-03-21T00:19:06;98013.54;;;4.62
47484;BMP280;54076;50.322;18.650;2023-03-21T00:24:09;98016.91;;;4.70
47484;BMP280;54076;50.322;18.650;2023-03-21T00:29:10;98014.29;;;4.78
47484;BMP280;54076;50.322;18.650;2023-03-21T00:34:11;98009.49;;;4.71
47484;BMP280;54076;50.322;18.650;2023-03-21T00:39:12;98008.08;;;4.68
47484;BMP280;54076;50.322;18.650;2023-03-21T00:44:13;98006.14;;;4.70
47484;BMP280;54076;50.322;18.650;2023-03-21T00:49:15;97998.83;;;4.70
47484;BMP280;54076;50.322;18.650;2023-03-21T00:54:16;97996.08;;;4.71
47484;BMP280;54076;50.322;18.650;2023-03-21T00:59:18;97995.51;;;4.68
47484;BMP280;54076;50.322;18.650;2023-03-21T01:04:20;97996.69;;;4.69
47484;BMP280;54076;50.322;18.650;2023-03-21T01:09:22;97992.42;;;4.71
47484;BMP280;54076;50.322;18.650;2023-03-21T01:14:24;97990.38;;;4.73
47484;BMP280;54076;50.322;18.650;2023-03-21T01:19:25;97982.93;;;4.66
47484;BMP280;54076;50.322;18.650;2023-03-21T01:24:28;97975.67;;;4.77
47484;BMP280;54076;50.322;18.650;2023-03-21T01:29:29;97976.86;;;4.81
47484;BMP280;54076;50.322;18.650;2023-03-21T01:34:30;97980.46;;;4.74
47484;BMP280;54076;50.322;18.650;2023-03-21T01:39:31;97971.23;;;4.75
47484;BMP280;54076;50.322;18.650;2023-03-21T01:44:59;97974.91;;;4.64
47484;BMP280;54076;50.322;18.650;2023-03-21T01:50:02;97967.79;;;4.73
47484;BMP280;54076;50.322;18.650;2023-03-21T01:55:07;97966.04;;;4.66
47484;BMP280;54076;50.322;18.650;2023-03-21T02:00:12;97964.27;;;4.64
47484;BMP280;54076;50.322;18.650;2023-03-21T02:05:25;97956.67;;;4.66
47484;BMP280;54076;50.322;18.650;2023-03-21T02:10:28;97959.49;;;4.56
47484;BMP280;54076;50.322;18.650;2023-03-21T02:15:31;97952.39;;;4.62
47484;BMP280;54076;50.322;18.650;2023-03-21T02:26:43;97959.67;;;4.51
47484;BMP280;54076;50.322;18.650;2023-03-21T02:32:22;97959.27;;;4.47
47484;BMP280;54076;50.322;18.650;2023-03-21T02:48:04;97964.61;;;4.45
47484;BMP280;54076;50.322;18.650;2023-03-21T02:53:10;97961.83;;;4.48
47484;BMP280;54076;50.322;18.650;2023-03-21T02:58:18;97962.55;;;4.51
47484;BMP280;54076;50.322;18.650;2023-03-21T03:03:20;97959.27;;;4.46
47484;BMP280;54076;50.322;18.650;2023-03-21T03:08:40;97962.48;;;4.42
47484;BMP280;54076;50.322;18.650;2023-03-21T03:14:14;97961.52;;;4.39
47484;BMP280;54076;50.322;18.650;2023-03-21T03:19:27;97951.42;;;4.32
47484;BMP280;54076;50.322;18.650;2023-03-21T03:24:33;97956.98;;;4.19
47484;BMP280;54076;50.322;18.650;2023-03-21T03:29:39;97955.94;;;4.19
47484;BMP280;54076;50.322;18.650;2023-03-21T03:34:48;97954.01;;;4.16
47484;BMP280;54076;50.322;18.650;2023-03-21T03:40:02;97957.10;;;4.22
47484;BMP280;54076;50.322;18.650;2023-03-21T03:45:09;97955.19;;;4.24
47484;BMP280;54076;50.322;18.650;2023-03-21T03:50:38;97946.83;;;4.14
47484;BMP280;54076;50.322;18.650;2023-03-21T03:55:40;97946.06;;;4.10
47484;BMP280;54076;50.322;18.650;2023-03-21T04:00:41;97954.54;;;4.16
47484;BMP280;54076;50.322;18.650;2023-03-21T04:05:42;97956.14;;;4.11
47484;BMP280;54076;50.322;18.650;2023-03-21T04:10:46;97948.44;;;4.15
47484;BMP280;54076;50.322;18.650;2023-03-21T04:15:47;97949.99;;;4.15
47484;BMP280;54076;50.322;18.650;2023-03-21T04:20:48;97952.05;;;4.23
47484;BMP280;54076;50.322;18.650;2023-03-21T04:25:51;97948.72;;;4.23
47484;BMP280;54076;50.322;18.650;2023-03-21T04:30:52;97957.92;;;4.24
47484;BMP280;54076;50.322;18.650;2023-03-21T04:35:53;97958.23;;;4.24
47484;BMP280;54076;50.322;18.650;2023-03-21T04:40:59;97950.95;;;4.26
47484;BMP280;54076;50.322;18.650;2023-03-21T04:46:00;97937.95;;;4.10
47484;BMP280;54076;50.322;18.650;2023-03-21T04:51:02;97930.70;;;3.99
47484;BMP280;54076;50.322;18.650;2023-03-21T04:56:04;97948.31;;;4.01
47484;BMP280;54076;50.322;18.650;2023-03-21T05:01:07;97950.39;;;3.91
47484;BMP280;54076;50.322;18.650;2023-03-21T05:06:09;97950.06;;;3.96
47484;BMP280;54076;50.322;18.650;2023-03-21T05:11:10;97950.92;;;3.98
47484;BMP280;54076;50.322;18.650;2023-03-21T05:16:11;97956.84;;;4.03
47484;BMP280;54076;50.322;18.650;2023-03-21T05:21:12;97949.77;;;4.05
47484;BMP280;54076;50.322;18.650;2023-03-21T05:26:17;97949.59;;;3.98
47484;BMP280;54076;50.322;18.650;2023-03-21T05:31:19;97952.94;;;3.99
47484;BMP280;54076;50.322;18.650;2023-03-21T05:36:20;97951.84;;;3.99
47484;BMP280;54076;50.322;18.650;2023-03-21T05:41:21;97955.70;;;3.97
47484;BMP280;54076;50.322;18.650;2023-03-21T05:46:22;97953.19;;;4.10
47484;BMP280;54076;50.322;18.650;2023-03-21T05:51:23;97957.72;;;4.09
47484;BMP280;54076;50.322;18.650;2023-03-21T05:56:25;97965.08;;;4.13
47484;BMP280;54076;50.322;18.650;2023-03-21T06:01:26;97965.85;;;4.16
47484;BMP280;54076;50.322;18.650;2023-03-21T06:06:27;97973.40;;;4.38
47484;BMP280;54076;50.322;18.650;2023-03-21T06:11:31;97982.14;;;4.36
47484;BMP280;54076;50.322;18.650;2023-03-21T06:16:33;97983.88;;;4.21
47484;BMP280;54076;50.322;18.650;2023-03-21T06:21:34;97985.69;;;4.19
47484;BMP280;54076;50.322;18.650;2023-03-21T06:26:35;97992.60;;;4.11
47484;BMP280;54076;50.322;18.650;2023-03-21T06:31:36;97992.36;;;4.26
47484;BMP280;54076;50.322;18.650;2023-03-21T06:36:37;97993.22;;;4.31
47484;BMP280;54076;50.322;18.650;2023-03-21T06:41:39;97996.56;;;4.45
47484;BMP280;54076;50.322;18.650;2023-03-21T06:46:40;97998.30;;;4.50
47484;BMP280;54076;50.322;18.650;2023-03-21T06:51:41;97997.09;;;4.38
47484;BMP280;54076;50.322;18.650;2023-03-21T06:56:43;98002.19;;;4.42
47484;BMP280;54076;50.322;18.650;2023-03-21T07:01:44;98006.49;;;4.50
47484;BMP280;54076;50.322;18.650;2023-03-21T07:06:45;98013.40;;;4.70
47484;BMP280;54076;50.322;18.650;2023-03-21T07:11:46;98013.14;;;4.74
47484;BMP280;54076;50.322;18.650;2023-03-21T07:16:47;98012.19;;;4.95
47484;BMP280;54076;50.322;18.650;2023-03-21T07:21:48;98020.26;;;4.82
47484;BMP280;54076;50.322;18.650;2023-03-21T07:26:49;98020.34;;;4.84
47484;BMP280;54076;50.322;18.650;2023-03-21T07:31:50;98017.38;;;5.02
47484;BMP280;54076;50.322;18.650;2023-03-21T07:36:51;98017.64;;;5.04
47484;BMP280;54076;50.322;18.650;2023-03-21T07:41:53;98017.78;;;5.05
47484;BMP280;54076;50.322;18.650;2023-03-21T07:46:56;98019.33;;;5.07
47484;BMP280;54076;50.322;18.650;2023-03-21T07:51:58;98025.55;;;5.03
47484;BMP280;54076;50.322;18.650;2023-03-21T07:56:59;98027.66;;;4.96
47484;BMP280;54076;50.322;18.650;2023-03-21T08:02:00;98031.64;;;4.81
47484;BMP280;54076;50.322;18.650;2023-03-21T08:07:01;98035.92;;;4.86
47484;BMP280;54076;50.322;18.650;2023-03-21T08:12:04;98032.11;;;5.15
47484;BMP280;54076;50.322;18.650;2023-03-21T08:17:07;98036.48;;;5.17
47484;BMP280;54076;50.322;18.650;2023-03-21T08:22:09;98038.41;;;5.22
47484;BMP280;54076;50.322;18.650;2023-03-21T08:27:10;98046.35;;;5.34
47484;BMP280;54076;50.322;18.650;2023-03-21T08:32:11;98045.02;;;5.34
47484;BMP280;54076;50.322;18.650;2023-03-21T08:37:12;98048.58;;;5.06
47484;BMP280;54076;50.322;18.650;2023-03-21T08:42:13;98047.79;;;5.14
47484;BMP280;54076;50.322;18.650;2023-03-21T08:47:15;98049.25;;;5.24
47484;BMP280;54076;50.322;18.650;2023-03-21T08:52:16;98050.96;;;5.22
47484;BMP280;54076;50.322;18.650;2023-03-21T08:57:17;98052.85;;;5.16
47484;BMP280;54076;50.322;18.650;2023-03-21T09:02:18;98051.77;;;5.25
47484;BMP280;54076;50.322;18.650;2023-03-21T09:07:20;98058.45;;;5.23
47484;BMP280;54076;50.322;18.650;2023-03-21T09:12:22;98062.39;;;5.33
47484;BMP280;54076;50.322;18.650;2023-03-21T09:17:23;98063.81;;;5.39
47484;BMP280;54076;50.322;18.650;2023-03-21T09:22:24;98065.95;;;5.13
47484;BMP280;54076;50.322;18.650;2023-03-21T09:27:25;98077.12;;;5.29
47484;BMP280;54076;50.322;18.650;2023-03-21T09:32:27;98078.48;;;5.32
47484;BMP280;54076;50.322;18.650;2023-03-21T09:37:29;98079.14;;;5.05
47484;BMP280;54076;50.322;18.650;2023-03-21T09:42:46;98079.11;;;5.02
47484;BMP280;54076;50.322;18.650;2023-03-21T09:47:52;98084.14;;;5.17
47484;BMP280;54076;50.322;18.650;2023-03-21T09:52:56;98080.86;;;5.32
47484;BMP280;54076;50.322;18.650;2023-03-21T09:58:34;98085.27;;;5.45
47484;BMP280;54076;50.322;18.650;2023-03-21T10:03:36;98081.13;;;5.49
47484;BMP280;54076;50.322;18.650;2023-03-21T10:08:40;98077.26;;;5.52
47484;BMP280;54076;50.322;18.650;2023-03-21T10:13:52;98081.44;;;5.48
47484;BMP280;54076;50.322;18.650;2023-03-21T10:18:56;98074.61;;;5.56
47484;BMP280;54076;50.322;18.650;2023-03-21T10:23:59;98076.65;;;5.51
47484;BMP280;54076;50.322;18.650;2023-03-21T10:29:01;98074.24;;;5.74
47484;BMP280;54076;50.322;18.650;2023-03-21T10:34:36;98072.77;;;5.79
47484;BMP280;54076;50.322;18.650;2023-03-21T10:39:46;98078.65;;;6.14
47484;BMP280;54076;50.322;18.650;2023-03-21T10:44:51;98079.57;;;6.10
47484;BMP280;54076;50.322;18.650;2023-03-21T10:49:53;98081.64;;;6.56
47484;BMP280;54076;50.322;18.650;2023-03-21T11:00:32;98078.65;;;6.42
47484;BMP280;54076;50.322;18.650;2023-03-21T11:05:40;98076.44;;;6.32
47484;BMP280;54076;50.322;18.650;2023-03-21T11:11:08;98074.73;;;6.40
47484;BMP280;54076;50.322;18.650;2023-03-21T11:16:11;98072.89;;;6.42
47484;BMP280;54076;50.322;18.650;2023-03-21T11:21:18;98075.27;;;6.52
47484;BMP280;54076;50.322;18.650;2023-03-21T11:26:35;98077.52;;;6.31
47484;BMP280;54076;50.322;18.650;2023-03-21T11:31:39;98077.94;;;6.16
47484;BMP280;54076;50.322;18.650;2023-03-21T11:36:40;98072.98;;;6.03
47484;BMP280;54076;50.322;18.650;2023-03-21T11:41:46;98068.91;;;6.34
47484;BMP280;54076;50.322;18.650;2023-03-21T11:46:47;98057.84;;;6.41
47484;BMP280;54076;50.322;18.650;2023-03-21T11:52:10;98053.84;;;6.30
47484;BMP280;54076;50.322;18.650;2023-03-21T11:57:50;98059.45;;;6.46
47484;BMP280;54076;50.322;18.650;2023-03-21T12:03:39;98055.84;;;6.35
47484;BMP280;54076;50.322;18.650;2023-03-21T12:09:03;98053.42;;;6.18
47484;BMP280;54076;50.322;18.650;2023-03-21T12:47:52;98023.23;;;6.48
47484;BMP280;54076;50.322;18.650;2023-03-21T12:58:27;98015.98;;;6.75
47484;BMP280;54076;50.322;18.650;2023-03-21T13:03:45;98010.64;;;6.96
47484;BMP280;54076;50.322;18.650;2023-03-21T13:14:27;97998.73;;;6.63
47484;BMP280;54076;50.322;18.650;2023-03-21T13:19:47;98000.64;;;6.82
47484;BMP280;54076;50.322;18.650;2023-03-21T13:25:21;97998.41;;;6.83
47484;BMP280;54076;50.322;18.650;2023-03-21T13:30:24;97996.20;;;6.91
47484;BMP280;54076;50.322;18.650;2023-03-21T13:35:35;97992.20;;;7.20
47484;BMP280;54076;50.322;18.650;2023-03-21T13:40:47;97987.70;;;7.14
47484;BMP280;54076;50.322;18.650;2023-03-21T13:45:52;97989.53;;;7.29
47484;BMP280;54076;50.322;18.650;2023-03-21T13:51:02;97981.95;;;7.73
47484;BMP280;54076;50.322;18.650;2023-03-21T13:56:19;97983.33;;;8.08
47484;BMP280;54076;50.322;18.650;2023-03-21T14:01:39;97972.75;;;8.07
47484;BMP280;54076;50.322;18.650;2023-03-21T14:11:44;97970.74;;;7.43
47484;BMP280;54076;50.322;18.650;2023-03-21T14:16:51;97966.80;;;7.32
47484;BMP280;54076;50.322;18.650;2023-03-21T14:21:52;97961.98;;;7.02
47484;BMP280;54076;50.322;18.650;2023-03-21T14:26:54;97958.22;;;6.90
47484;BMP280;54076;50.322;18.650;2023-03-21T14:31:56;97957.58;;;6.80
47484;BMP280;54076;50.322;18.650;2023-03-21T14:36:59;97956.44;;;6.60
47484;BMP280;54076;50.322;18.650;2023-03-21T14:42:10;97949.63;;;6.55
47484;BMP280;54076;50.322;18.650;2023-03-21T14:47:28;97955.38;;;6.49
47484;BMP280;54076;50.322;18.650;2023-03-21T14:52:33;97951.39;;;6.51
47484;BMP280;54076;50.322;18.650;2023-03-21T14:57:34;97948.92;;;6.47
47484;BMP280;54076;50.322;18.650;2023-03-21T15:02:37;97950.04;;;6.45
47484;BMP280;54076;50.322;18.650;2023-03-21T15:07:40;97951.88;;;6.41
47484;BMP280;54076;50.322;18.650;2023-03-21T15:12:56;97952.23;;;6.33
47484;BMP280;54076;50.322;18.650;2023-03-21T15:18:04;97953.27;;;6.38
47484;BMP280;54076;50.322;18.650;2023-03-21T15:23:11;97945.23;;;6.35
47484;BMP280;54076;50.322;18.650;2023-03-21T15:28:14;97936.44;;;6.20
47484;BMP280;54076;50.322;18.650;2023-03-21T15:33:15;97929.14;;;6.24
47484;BMP280;54076;50.322;18.650;2023-03-21T15:38:41;97928.30;;;6.31
47484;BMP280;54076;50.322;18.650;2023-03-21T15:49:18;97925.55;;;6.32
47484;BMP280;54076;50.322;18.650;2023-03-21T15:59:43;97922.41;;;6.27
47484;BMP280;54076;50.322;18.650;2023-03-21T16:05:28;97924.27;;;6.41
47484;BMP280;54076;50.322;18.650;2023-03-21T16:10:34;97918.96;;;6.42
47484;BMP280;54076;50.322;18.650;2023-03-21T16:15:37;97917.30;;;6.48
47484;BMP280;54076;50.322;18.650;2023-03-21T16:20:42;97919.82;;;6.32
47484;BMP280;54076;50.322;18.650;2023-03-21T16:25:43;97919.25;;;6.23
47484;BMP280;54076;50.322;18.650;2023-03-21T16:30:45;97922.29;;;6.15
47484;BMP280;54076;50.322;18.650;2023-03-21T16:35:47;97928.96;;;6.24
47484;BMP280;54076;50.322;18.650;2023-03-21T16:40:48;97930.23;;;5.97
47484;BMP280;54076;50.322;18.650;2023-03-21T16:45:51;97930.88;;;5.92
47484;BMP280;54076;50.322;18.650;2023-03-21T16:50:52;97936.60;;;6.01
47484;BMP280;54076;50.322;18.650;2023-03-21T16:55:53;97938.17;;;5.97
47484;BMP280;54076;50.322;18.650;2023-03-21T17:00:54;97940.69;;;5.98
47484;BMP280;54076;50.322;18.650;2023-03-21T17:05:56;97945.45;;;5.87
47484;BMP280;54076;50.322;18.650;2023-03-21T17:10:57;97951.39;;;5.79
47484;BMP280;54076;50.322;18.650;2023-03-21T17:15:59;97950.35;;;5.76
47484;BMP280;54076;50.322;18.650;2023-03-21T17:21:00;97954.06;;;5.62
47484;BMP280;54076;50.322;18.650;2023-03-21T17:26:01;97955.36;;;5.70
47484;BMP280;54076;50.322;18.650;2023-03-21T17:31:03;97960.31;;;5.81
47484;BMP280;54076;50.322;18.650;2023-03-21T17:36:05;97960.16;;;5.76
47484;BMP280;54076;50.322;18.650;2023-03-21T17:41:11;97961.19;;;5.70
47484;BMP280;54076;50.322;18.650;2023-03-21T17:46:23;97965.11;;;5.68
47484;BMP280;54076;50.322;18.650;2023-03-21T17:51:25;97961.37;;;5.66
47484;BMP280;54076;50.322;18.650;2023-03-21T17:56:31;97961.60;;;5.69
47484;BMP280;54076;50.322;18.650;2023-03-21T18:01:33;97961.63;;;5.63
47484;BMP280;54076;50.322;18.650;2023-03-21T18:06:35;97959.41;;;5.59
47484;BMP280;54076;50.322;18.650;2023-03-21T18:11:38;97962.19;;;5.54
47484;BMP280;54076;50.322;18.650;2023-03-21T18:16:39;97970.16;;;5.55
47484;BMP280;54076;50.322;18.650;2023-03-21T18:21:40;97967.38;;;5.52
47484;BMP280;54076;50.322;18.650;2023-03-21T18:26:43;97968.92;;;5.41
47484;BMP280;54076;50.322;18.650;2023-03-21T18:31:44;97968.27;;;5.38
47484;BMP280;54076;50.322;18.650;2023-03-21T18:36:45;97972.44;;;5.37
47484;BMP280;54076;50.322;18.650;2023-03-21T18:41:47;97975.50;;;5.25
47484;BMP280;54076;50.322;18.650;2023-03-21T18:46:48;97973.20;;;5.15
47484;BMP280;54076;50.322;18.650;2023-03-21T18:51:51;97974.88;;;5.14
47484;BMP280;54076;50.322;18.650;2023-03-21T18:56:52;97972.87;;;5.17
47484;BMP280;54076;50.322;18.650;2023-03-21T19:01:53;97978.86;;;5.14
47484;BMP280;54076;50.322;18.650;2023-03-21T19:06:54;97976.02;;;5.09
47484;BMP280;54076;50.322;18.650;2023-03-21T19:11:58;97985.37;;;5.13
47484;BMP280;54076;50.322;18.650;2023-03-21T19:16:59;97992.08;;;5.13
47484;BMP280;54076;50.322;18.650;2023-03-21T19:22:01;97995.10;;;5.11
47484;BMP280;54076;50.322;18.650;2023-03-21T19:27:02;97995.84;;;4.96
47484;BMP280;54076;50.322;18.650;2023-03-21T19:32:04;97993.66;;;5.02
47484;BMP280;54076;50.322;18.650;2023-03-21T19:37:05;97989.52;;;4.99
47484;BMP280;54076;50.322;18.650;2023-03-21T19:42:06;97987.60;;;5.01
47484;BMP280;54076;50.322;18.650;2023-03-21T19:47:08;97981.62;;;4.93
47484;BMP280;54076;50.322;18.650;2023-03-21T19:52:09;97979.91;;;4.93
47484;BMP280;54076;50.322;18.650;2023-03-21T19:57:10;97981.23;;;4.94
47484;BMP280;54076;50.322;18.650;2023-03-21T20:02:11;97980.92;;;4.86
47484;BMP280;54076;50.322;18.650;2023-03-21T20:07:13;97976.92;;;4.89
47484;BMP280;54076;50.322;18.650;2023-03-21T20:12:14;97976.60;;;4.77
47484;BMP280;54076;50.322;18.650;2023-03-21T20:17:15;97974.49;;;4.83
47484;BMP280;54076;50.322;18.650;2023-03-21T20:22:17;97976.57;;;4.77
47484;BMP280;54076;50.322;18.650;2023-03-21T20:27:18;97979.35;;;4.77
47484;BMP280;54076;50.322;18.650;2023-03-21T20:32:24;97976.68;;;4.82
47484;BMP280;54076;50.322;18.650;2023-03-21T20:37:25;97977.98;;;4.82
47484;BMP280;54076;50.322;18.650;2023-03-21T20:42:26;97978.90;;;4.73
47484;BMP280;54076;50.322;18.650;2023-03-21T20:47:28;97976.02;;;4.72
47484;BMP280;54076;50.322;18.650;2023-03-21T20:52:29;97972.69;;;4.79
47484;BMP280;54076;50.322;18.650;2023-03-21T20:57:30;97974.73;;;4.73
47484;BMP280;54076;50.322;18.650;2023-03-21T21:02:32;97967.01;;;4.79
47484;BMP280;54076;50.322;18.650;2023-03-21T21:07:33;97963.20;;;4.84
47484;BMP280;54076;50.322;18.650;2023-03-21T21:12:38;97954.21;;;4.82
47484;BMP280;54076;50.322;18.650;2023-03-21T21:17:40;97950.15;;;4.81
47484;BMP280;54076;50.322;18.650;2023-03-21T21:22:44;97948.90;;;4.90
47484;BMP280;54076;50.322;18.650;2023-03-21T21:27:46;97945.30;;;4.87
47484;BMP280;54076;50.322;18.650;2023-03-21T21:32:47;97946.95;;;4.78
47484;BMP280;54076;50.322;18.650;2023-03-21T21:37:49;97943.89;;;4.82
47484;BMP280;54076;50.322;18.650;2023-03-21T21:42:51;97933.38;;;4.83
47484;BMP280;54076;50.322;18.650;2023-03-21T21:47:52;97927.77;;;4.90
47484;BMP280;54076;50.322;18.650;2023-03-21T21:52:53;97922.74;;;4.78
47484;BMP280;54076;50.322;18.650;2023-03-21T21:57:54;97921.78;;;4.73
47484;BMP280;54076;50.322;18.650;2023-03-21T22:02:59;97926.13;;;4.69
47484;BMP280;54076;50.322;18.650;2023-03-21T22:08:00;97924.35;;;4.75
47484;BMP280;54076;50.322;18.650;2023-03-21T22:13:01;97933.16;;;4.76
47484;BMP280;54076;50.322;18.650;2023-03-21T22:18:02;97940.88;;;4.69
47484;BMP280;54076;50.322;18.650;2023-03-21T22:23:03;97943.02;;;4.65
47484;BMP280;54076;50.322;18.650;2023-03-21T22:28:05;97943.55;;;4.65
47484;BMP280;54076;50.322;18.650;2023-03-21T22:33:06;97945.66;;;4.66
47484;BMP280;54076;50.322;18.650;2023-03-21T22:38:07;97952.36;;;4.65
47484;BMP280;54076;50.322;18.650;2023-03-21T22:43:08;97946.64;;;4.58
47484;BMP280;54076;50.322;18.650;2023-03-21T22:48:09;97941.80;;;4.52
47484;BMP280;54076;50.322;18.650;2023-03-21T22:53:11;97933.01;;;4.44
47484;BMP280;54076;50.322;18.650;2023-03-21T22:58:12;97931.64;;;4.25
47484;BMP280;54076;50.322;18.650;2023-03-21T23:03:13;97925.05;;;4.19
47484;BMP280;54076;50.322;18.650;2023-03-21T23:08:16;97928.81;;;4.16
47484;BMP280;54076;50.322;18.650;2023-03-21T23:13:17;97936.59;;;4.17
47484;BMP280;54076;50.322;18.650;2023-03-21T23:18:18;97929.81;;;4.03
47484;BMP280;54076;50.322;18.650;2023-03-21T23:23:19;97927.11;;;3.96
47484;BMP280;54076;50.322;18.650;2023-03-21T23:28:20;97922.55;;;3.85
47484;BMP280;54076;50.322;18.650;2023-03-21T23:33:21;97926.67;;;3.84
47484;BMP280;54076;50.322;18.650;2023-03-21T23:38:23;97929.52;;;3.78
47484;BMP280;54076;50.322;18.650;2023-03-21T23:43:24;97925.38;;;3.74
47484;BMP280;54076;50.322;18.650;2023-03-21T23:48:25;97919.88;;;3.78
47484;BMP280;54076;50.322;18.650;2023-03-21T23:53:26;97912.34;;;3.81
47484;BMP280;54076;50.322;18.650;2023-03-21T23:58:28;97898.23;;;3.85
